Time;durP1;ratioP1;P1;durP2;ratioP2;P2;SDS_P1;SDS_P2;PMS_P1;PMS_P2;Temp;Humidity;BMP_temperature;BMP_pressure;BME280_temperature;BME280_humidity;BME280_pressure;Samples;Min_cycle;Max_cycle;Signal;HPM_P1;HPM_P2
2023/05/10 00:02:10;;;;;;;15.90;13.00;;;12.10;99.90;;;;;;5133328;27;20516;-46
2023/05/10 00:04:35;;;;;;;14.10;11.63;;;12.10;99.90;;;;;;5107148;27;20035;-50
2023/05/10 00:07:01;;;;;;;16.58;11.82;;;12.10;99.90;;;;;;5130710;27;20434;-46
2023/05/10 00:09:27;;;;;;;15.65;11.88;;;12.00;99.90;;;;;;5132917;27;20142;-45
2023/05/10 00:11:53;;;;;;;17.80;12.48;;;12.20;99.90;;;;;;5131708;27;20038;-48
2023/05/10 00:14:19;;;;;;;17.15;12.43;;;12.00;99.90;;;;;;5134638;27;20097;-49
2023/05/10 00:16:45;;;;;;;14.13;11.90;;;12.30;99.90;;;;;;5134967;27;20129;-51
2023/05/10 00:19:10;;;;;;;14.48;10.98;;;12.20;99.90;;;;;;5135218;27;20059;-48
2023/05/10 00:21:36;;;;;;;14.95;11.15;;;12.10;99.90;;;;;;5135902;27;20030;-47
2023/05/10 00:24:02;;;;;;;12.43;10.80;;;12.10;99.90;;;;;;5133812;27;20050;-48
2023/05/10 00:26:28;;;;;;;11.45;9.82;;;11.90;99.90;;;;;;5116537;27;20043;-46
2023/05/10 00:28:53;;;;;;;12.38;10.18;;;12.00;99.90;;;;;;5135109;27;20078;-47
2023/05/10 00:31:19;;;;;;;11.55;9.05;;;12.10;99.90;;;;;;5116883;27;20035;-47
2023/05/10 00:33:45;;;;;;;12.80;10.35;;;12.20;99.90;;;;;;5134760;27;20622;-47
2023/05/10 00:36:10;;;;;;;12.25;10.38;;;12.00;99.90;;;;;;5134814;27;20138;-49
2023/05/10 00:38:36;;;;;;;14.95;11.88;;;12.10;99.90;;;;;;5137056;27;20102;-48
2023/05/10 00:41:02;;;;;;;17.45;12.88;;;11.90;99.90;;;;;;5133130;27;20133;-49
2023/05/10 00:43:28;;;;;;;18.67;14.00;;;12.00;99.90;;;;;;5134051;27;20398;-46
2023/05/10 00:45:54;;;;;;;17.85;12.90;;;12.00;99.90;;;;;;5134643;27;20049;-49
2023/05/10 00:48:20;;;;;;;14.32;11.48;;;12.10;99.90;;;;;;5117500;27;20035;-46
2023/05/10 00:50:46;;;;;;;17.38;11.85;;;12.00;99.90;;;;;;5116830;27;20050;-49
2023/05/10 00:53:12;;;;;;;16.65;12.38;;;12.00;99.90;;;;;;5134735;27;20408;-47
2023/05/10 00:55:38;;;;;;;17.23;10.75;;;12.00;99.90;;;;;;5137009;27;20050;-48
2023/05/10 00:58:05;;;;;;;16.42;11.68;;;12.10;99.90;;;;;;5135824;27;20359;-45
2023/05/10 01:00:33;;;;;;;17.58;12.82;;;11.90;99.90;;;;;;5114807;27;20103;-49
2023/05/10 01:02:59;;;;;;;14.30;11.48;;;12.00;99.90;;;;;;5134368;27;20542;-47
2023/05/10 01:05:26;;;;;;;14.75;11.02;;;11.80;99.90;;;;;;5135891;27;20070;-48
2023/05/10 01:07:52;;;;;;;11.57;9.30;;;12.30;99.90;;;;;;5136662;27;20077;-47
2023/05/10 01:10:18;;;;;;;13.13;8.93;;;12.00;99.90;;;;;;5135154;27;20074;-49
2023/05/10 01:12:46;;;;;;;11.80;9.45;;;12.00;99.90;;;;;;5133485;27;20038;-47
2023/05/10 01:15:13;;;;;;;12.88;10.13;;;11.90;99.90;;;;;;5135069;27;20047;-48
2023/05/10 01:17:42;;;;;;;12.57;9.77;;;12.00;99.90;;;;;;5135541;27;20043;-50
2023/05/10 01:20:10;;;;;;;12.07;9.82;;;11.70;99.90;;;;;;5135304;27;20331;-49
2023/05/10 01:22:41;;;;;;;12.88;10.30;;;12.00;99.90;;;;;;5135116;27;20034;-47
2023/05/10 01:25:44;;;;;;;9.48;8.40;;;11.80;99.90;;;;;;5133614;27;20121;-48
2023/05/10 01:28:15;;;;;;;11.57;9.38;;;11.80;99.90;;;;;;5116002;27;20046;-48
2023/05/10 01:31:05;;;;;;;13.63;10.05;;;11.90;99.90;;;;;;5132665;27;20103;-45
2023/05/10 01:33:49;;;;;;;10.57;9.40;;;11.70;99.90;;;;;;5132618;27;20039;-49
2023/05/10 01:36:26;;;;;;;10.70;9.30;;;11.80;99.90;;;;;;5132860;27;20130;-47
2023/05/10 01:39:08;;;;;;;12.82;9.75;;;11.80;99.90;;;;;;5135593;27;20076;-49
2023/05/10 01:41:51;;;;;;;10.45;9.15;;;11.70;99.90;;;;;;5114744;27;20191;-47
2023/05/10 01:44:17;;;;;;;;;;;11.90;99.90;;;;;;5135135;27;20042;-45
2023/05/10 01:46:43;;;;;;;11.68;9.43;;;11.90;99.90;;;;;;5134446;27;19923;-48
2023/05/10 01:49:15;;;;;;;10.98;9.32;;;11.90;99.90;;;;;;5133669;27;21407;-49
2023/05/10 01:51:51;;;;;;;11.40;9.80;;;11.70;99.90;;;;;;5132782;27;20046;-50
2023/05/10 01:54:19;;;;;;;12.15;10.18;;;11.80;99.90;;;;;;5132794;27;20050;-50
2023/05/10 01:56:52;;;;;;;13.85;10.73;;;12.00;99.90;;;;;;5133086;27;20133;-52
2023/05/10 01:59:20;;;;;;;13.15;10.88;;;11.80;99.90;;;;;;5133317;27;20046;-49
2023/05/10 02:01:48;;;;;;;12.45;10.52;;;11.80;99.90;;;;;;5133172;27;20102;-50
2023/05/10 02:04:17;;;;;;;11.68;10.20;;;11.90;99.90;;;;;;5115475;27;21462;-51
2023/05/10 02:06:43;;;;;;;15.45;12.93;;;11.80;99.90;;;;;;5133916;27;20046;-50
2023/05/10 02:09:11;;;;;;;14.30;12.43;;;11.90;99.90;;;;;;5133545;27;20038;-51
2023/05/10 02:11:42;;;;;;;17.95;12.40;;;11.70;99.90;;;;;;5133013;27;20468;-52
2023/05/10 02:14:11;;;;;;;14.13;11.35;;;12.00;99.90;;;;;;5133567;27;20464;-52
2023/05/10 02:16:39;;;;;;;18.13;13.38;;;11.80;99.90;;;;;;5133662;27;20682;-53
2023/05/10 02:19:06;;;;;;;16.00;13.32;;;11.70;99.90;;;;;;5133307;27;20050;-50
2023/05/10 02:21:33;;;;;;;14.77;12.75;;;11.90;99.90;;;;;;5115799;27;20098;-50
2023/05/10 02:24:00;;;;;;;14.93;12.38;;;11.90;99.90;;;;;;5132517;27;20107;-52
2023/05/10 02:26:26;;;;;;;15.75;12.82;;;11.90;99.90;;;;;;5133505;27;20099;-53
2023/05/10 02:28:54;;;;;;;18.30;14.73;;;11.80;99.90;;;;;;5133125;27;20047;-51
2023/05/10 02:31:21;;;;;;;15.48;13.40;;;11.90;99.90;;;;;;5132927;27;20049;-52
2023/05/10 02:33:48;;;;;;;19.80;15.35;;;12.00;99.90;;;;;;5135054;27;20039;-52
2023/05/10 02:36:16;;;;;;;20.73;14.68;;;11.80;99.90;;;;;;5133064;27;20038;-52
2023/05/10 02:38:43;;;;;;;18.20;14.98;;;11.90;99.90;;;;;;5115740;27;20121;-52
2023/05/10 02:41:11;;;;;;;18.10;15.00;;;11.90;99.90;;;;;;5133908;27;20074;-50
2023/05/10 02:43:39;;;;;;;19.92;15.98;;;12.00;99.90;;;;;;5113973;27;20056;-50
2023/05/10 02:46:05;;;;;;;19.98;16.05;;;11.90;99.90;;;;;;5132716;27;20058;-52
2023/05/10 02:48:31;;;;;;;24.88;18.23;;;12.00;99.90;;;;;;5133907;27;20978;-50
2023/05/10 02:51:04;;;;;;;23.48;17.35;;;11.70;99.90;;;;;;5132857;27;20095;-51
2023/05/10 02:53:35;;;;;;;23.65;17.45;;;11.70;99.90;;;;;;5134009;27;20376;-49
2023/05/10 02:56:06;;;;;;;25.75;19.20;;;11.90;99.90;;;;;;5115131;27;20250;-51
2023/05/10 02:58:33;;;;;;;25.88;18.17;;;11.80;99.90;;;;;;5132985;27;20034;-49
2023/05/10 03:01:00;;;;;;;28.35;20.27;;;12.10;99.90;;;;;;5131717;27;20053;-51
2023/05/10 03:03:26;;;;;;;31.45;20.73;;;12.10;99.90;;;;;;5096374;27;20128;-48
2023/05/10 03:05:55;;;;;;;33.22;21.63;;;11.80;99.90;;;;;;5131927;27;20039;-51
2023/05/10 03:08:22;;;;;;;28.02;19.23;;;11.80;99.90;;;;;;5114603;27;20062;-52
2023/05/10 03:11:08;;;;;;;30.50;20.05;;;11.80;99.90;;;;;;5132987;27;20110;-51
2023/05/10 03:14:05;;;;;;;33.20;20.35;;;11.90;99.90;;;;;;5131695;27;20460;-50
2023/05/10 03:16:40;;;;;;;40.42;21.15;;;11.90;99.90;;;;;;5131396;27;20070;-51
2023/05/10 03:19:43;;;;;;;35.20;20.10;;;11.90;99.90;;;;;;5131207;27;20078;-49
2023/05/10 03:22:11;;;;;;;37.00;19.95;;;11.80;99.90;;;;;;5132628;27;20158;-51
2023/05/10 03:24:39;;;;;;;45.47;21.80;;;11.70;99.90;;;;;;5131755;27;20137;-49
2023/05/10 03:27:07;;;;;;;32.70;18.60;;;11.80;99.90;;;;;;5112931;27;20085;-50
2023/05/10 03:29:33;;;;;;;36.47;20.00;;;11.80;99.90;;;;;;5130039;27;20073;-46
2023/05/10 03:32:00;;;;;;;43.03;22.50;;;11.80;99.90;;;;;;5131799;27;20659;-50
2023/05/10 03:34:25;;;;;;;42.40;20.95;;;11.90;99.90;;;;;;5132205;27;20039;-50
2023/05/10 03:36:52;;;;;;;35.58;19.45;;;11.80;99.90;;;;;;5131189;27;20038;-51
2023/05/10 03:39:17;;;;;;;27.90;17.50;;;11.50;99.90;;;;;;5132621;27;20085;-50
2023/05/10 03:41:43;;;;;;;38.10;20.42;;;11.80;99.90;;;;;;5131190;27;20130;-46
2023/05/10 03:44:09;;;;;;;37.17;19.90;;;11.90;99.90;;;;;;5133143;27;20054;-50
2023/05/10 03:46:35;;;;;;;33.10;18.98;;;11.70;99.90;;;;;;5131923;27;20481;-51
2023/05/10 03:49:00;;;;;;;35.85;18.70;;;11.80;99.90;;;;;;5119295;27;20042;-50
2023/05/10 03:51:28;;;;;;;34.85;19.08;;;11.90;99.90;;;;;;5120830;27;20034;-51
2023/05/10 03:53:55;;;;;;;30.00;18.08;;;11.80;99.90;;;;;;5139553;27;20078;-49
2023/05/10 03:56:21;;;;;;;30.63;18.02;;;11.90;99.90;;;;;;5137689;27;20519;-46
2023/05/10 03:58:47;;;;;;;22.55;15.85;;;11.80;99.90;;;;;;5138400;27;20041;-52
2023/05/10 04:01:12;;;;;;;29.63;17.30;;;11.70;99.90;;;;;;5138633;27;20061;-48
2023/05/10 04:03:38;;;;;;;26.52;17.15;;;11.70;99.90;;;;;;5138626;27;20380;-50
2023/05/10 04:06:05;;;;;;;25.02;13.95;;;11.70;99.90;;;;;;5138595;27;20046;-49
2023/05/10 04:08:31;;;;;;;16.77;12.02;;;11.80;99.90;;;;;;5139255;27;21974;-48
2023/05/10 04:11:12;;;;;;;16.17;10.80;;;11.60;99.90;;;;;;5139101;27;20403;-49
2023/05/10 04:13:38;;;;;;;11.77;8.55;;;11.80;99.90;;;;;;5138909;27;20073;-50
2023/05/10 04:16:04;;;;;;;9.82;6.93;;;11.50;99.90;;;;;;5137494;27;20084;-51
2023/05/10 04:18:31;;;;;;;8.07;5.82;;;11.50;99.90;;;;;;5121214;27;20379;-47
2023/05/10 04:20:57;;;;;;;6.30;4.40;;;12.40;99.90;;;;;;5139721;27;20126;-48
2023/05/10 04:23:23;;;;;;;7.88;4.95;;;11.60;99.90;;;;;;5139405;27;20038;-48
2023/05/10 04:25:48;;;;;;;6.43;4.55;;;11.60;99.90;;;;;;5138443;27;20034;-48
2023/05/10 04:28:14;;;;;;;7.93;4.88;;;11.50;99.90;;;;;;5139986;27;20456;-52
2023/05/10 04:30:40;;;;;;;7.88;4.65;;;11.70;99.90;;;;;;5138759;27;20043;-47
2023/05/10 04:33:06;;;;;;;7.10;4.57;;;11.60;99.90;;;;;;5138649;27;20047;-46
2023/05/10 04:35:32;;;;;;;6.43;4.57;;;11.70;99.90;;;;;;5136350;27;20163;-48
2023/05/10 04:37:57;;;;;;;9.95;5.43;;;11.80;99.90;;;;;;5138728;27;20039;-46
2023/05/10 04:40:23;;;;;;;8.98;5.25;;;11.70;99.90;;;;;;5139090;27;20047;-48
2023/05/10 04:42:49;;;;;;;10.52;5.93;;;11.60;99.90;;;;;;5136939;27;20691;-49
2023/05/10 04:45:15;;;;;;;13.07;6.97;;;11.60;99.90;;;;;;5137180;27;20138;-47
2023/05/10 04:47:41;;;;;;;12.38;6.90;;;10.50;99.90;;;;;;5120176;27;20587;-46
2023/05/10 04:50:08;;;;;;;16.42;7.60;;;11.60;99.90;;;;;;5135267;27;20053;-46
2023/05/10 04:52:33;;;;;;;14.68;7.43;;;11.50;99.90;;;;;;5137819;27;20042;-48
2023/05/10 04:54:59;;;;;;;14.63;8.65;;;11.60;99.90;;;;;;5136930;27;20066;-48
2023/05/10 04:57:25;;;;;;;12.73;7.40;;;11.80;99.90;;;;;;5118762;27;20050;-48
2023/05/10 04:59:51;;;;;;;19.40;9.13;;;11.70;99.90;;;;;;5134048;27;20043;-47
2023/05/10 05:02:16;;;;;;;15.40;8.52;;;11.70;99.90;;;;;;5115647;27;20093;-48
2023/05/10 05:04:42;;;;;;;16.30;9.48;;;11.50;99.90;;;;;;5133936;27;20039;-46
2023/05/10 05:07:08;;;;;;;16.98;8.95;;;11.70;99.90;;;;;;5134131;27;20050;-47
2023/05/10 05:09:33;;;;;;;16.33;8.32;;;11.70;99.90;;;;;;5134252;27;20096;-47
2023/05/10 05:11:59;;;;;;;13.57;8.63;;;11.50;99.90;;;;;;5135350;27;20142;-48
2023/05/10 05:14:25;;;;;;;15.73;8.82;;;12.40;99.90;;;;;;5133735;27;20388;-51
2023/05/10 05:16:52;;;;;;;15.80;8.93;;;11.50;99.90;;;;;;5134392;27;20127;-48
2023/05/10 05:19:17;;;;;;;15.18;8.95;;;11.50;99.90;;;;;;5116002;27;20088;-48
2023/05/10 05:21:43;;;;;;;12.65;8.77;;;11.70;99.90;;;;;;5135434;27;20035;-48
2023/05/10 05:24:10;;;;;;;12.75;8.43;;;11.80;99.90;;;;;;5135001;27;20061;-48
2023/05/10 05:26:36;;;;;;;13.38;8.90;;;11.80;99.90;;;;;;5134353;27;20406;-51
2023/05/10 05:29:02;;;;;;;15.57;9.82;;;11.80;99.90;;;;;;5132775;27;21183;-48
2023/05/10 05:31:28;;;;;;;14.13;9.82;;;11.80;99.90;;;;;;5116785;27;20049;-50
2023/05/10 05:33:55;;;;;;;13.85;8.60;;;11.70;99.90;;;;;;5134049;27;20034;-51
2023/05/10 05:36:20;;;;;;;11.38;8.20;;;11.60;99.90;;;;;;5132823;27;20057;-49
2023/05/10 05:38:46;;;;;;;11.02;8.07;;;11.70;99.90;;;;;;5133308;27;20042;-52
2023/05/10 05:41:12;;;;;;;14.52;9.40;;;11.80;99.90;;;;;;5136997;27;20603;-47
2023/05/10 05:43:38;;;;;;;20.73;10.93;;;11.70;99.90;;;;;;5133942;27;20046;-47
2023/05/10 05:46:03;;;;;;;17.23;10.45;;;11.80;99.90;;;;;;5133697;27;20671;-47
2023/05/10 05:48:30;;;;;;;26.88;12.65;;;10.70;99.90;;;;;;5134653;27;20039;-50
2023/05/10 05:50:56;;;;;;;27.60;14.07;;;11.70;99.90;;;;;;5134021;27;20035;-50
2023/05/10 05:53:23;;;;;;;28.13;14.65;;;11.60;99.90;;;;;;5134961;27;20043;-49
2023/05/10 05:55:57;;;;;;;27.85;14.98;;;11.90;99.90;;;;;;5115837;27;20047;-51
2023/05/10 05:58:22;;;;;;;28.85;16.30;;;11.70;99.90;;;;;;5134428;27;20038;-51
2023/05/10 06:00:48;;;;;;;28.98;15.70;;;11.80;99.90;;;;;;5134494;27;20039;-51
2023/05/10 06:03:14;;;;;;;22.77;14.27;;;11.80;99.90;;;;;;5135669;27;20034;-52
2023/05/10 06:05:40;;;;;;;18.70;12.00;;;11.70;99.90;;;;;;5132835;27;20037;-51
2023/05/10 06:08:06;;;;;;;15.20;10.80;;;11.60;99.90;;;;;;5133668;27;20038;-51
2023/05/10 06:10:31;;;;;;;15.90;9.05;;;11.60;99.90;;;;;;5133848;27;20638;-53
2023/05/10 06:12:57;;;;;;;12.88;7.95;;;11.50;99.90;;;;;;5132531;27;20081;-47
2023/05/10 06:15:23;;;;;;;13.18;9.02;;;11.60;99.90;;;;;;5130298;27;20117;-50
2023/05/10 06:17:51;;;;;;;11.05;7.35;;;11.50;99.90;;;;;;5130565;27;20119;-51
2023/05/10 06:20:17;;;;;;;10.77;6.50;;;11.70;99.90;;;;;;5132162;27;20047;-51
2023/05/10 06:22:42;;;;;;;9.75;6.32;;;11.60;99.90;;;;;;5131964;27;20064;-49
2023/05/10 06:25:09;;;;;;;6.60;4.43;;;11.80;99.90;;;;;;5131658;27;20050;-50
2023/05/10 06:27:35;;;;;;;6.72;3.65;;;11.70;99.90;;;;;;5128465;27;22805;-50
2023/05/10 06:30:02;;;;;;;5.43;2.95;;;11.70;99.90;;;;;;5131758;27;20038;-49
2023/05/10 06:32:28;;;;;;;3.95;2.13;;;11.80;99.90;;;;;;5131086;27;20046;-50
2023/05/10 06:34:54;;;;;;;2.95;1.85;;;11.70;99.90;;;;;;5132075;27;20058;-50
2023/05/10 06:37:20;;;;;;;2.60;1.70;;;11.70;99.90;;;;;;5131337;27;20576;-49
2023/05/10 06:39:45;;;;;;;2.78;1.70;;;11.70;99.90;;;;;;5130962;27;20054;-51
2023/05/10 06:42:11;;;;;;;4.03;1.30;;;11.90;99.90;;;;;;5131634;27;20051;-49
2023/05/10 06:44:37;;;;;;;3.42;1.48;;;11.90;99.90;;;;;;5132276;27;20552;-51
2023/05/10 06:47:03;;;;;;;3.35;1.65;;;11.80;99.90;;;;;;5130333;27;20449;-48
2023/05/10 06:49:28;;;;;;;2.78;1.60;;;11.80;99.90;;;;;;5130054;27;20050;-51
2023/05/10 06:51:55;;;;;;;3.97;1.70;;;11.90;99.90;;;;;;5129423;27;20527;-51
2023/05/10 06:54:21;;;;;;;4.55;1.92;;;11.90;99.90;;;;;;5131681;27;20576;-50
2023/05/10 06:56:47;;;;;;;4.10;2.17;;;11.90;99.90;;;;;;5129300;27;20129;-47
2023/05/10 06:59:13;;;;;;;3.58;2.35;;;12.10;99.90;;;;;;5131475;27;20042;-48
2023/05/10 07:01:39;;;;;;;4.47;2.47;;;11.90;99.90;;;;;;5130244;27;20113;-50
2023/05/10 07:04:05;;;;;;;4.07;2.60;;;11.90;99.90;;;;;;5130231;27;20070;-49
2023/05/10 07:06:31;;;;;;;4.45;2.72;;;11.90;99.90;;;;;;5130125;27;20461;-51
2023/05/10 07:08:56;;;;;;;5.95;3.50;;;11.90;99.90;;;;;;5132627;27;20043;-48
2023/05/10 07:11:22;;;;;;;6.35;3.53;;;12.20;99.90;;;;;;5131299;27;20043;-47
2023/05/10 07:13:48;;;;;;;5.25;3.55;;;12.00;99.90;;;;;;5130836;27;20031;-52
2023/05/10 07:16:13;;;;;;;4.95;3.92;;;12.10;99.90;;;;;;5132793;27;20046;-51
2023/05/10 07:18:39;;;;;;;4.85;3.65;;;12.00;99.90;;;;;;5130820;27;20054;-50
2023/05/10 07:21:05;;;;;;;6.03;4.10;;;12.20;99.90;;;;;;5129483;27;20689;-48
2023/05/10 07:23:31;;;;;;;6.40;4.35;;;12.10;99.90;;;;;;5131818;27;20053;-49
2023/05/10 07:25:57;;;;;;;6.07;4.75;;;12.30;99.90;;;;;;5130233;27;20035;-50
2023/05/10 07:28:24;;;;;;;6.32;4.45;;;12.00;99.90;;;;;;5130596;27;20083;-48
2023/05/10 07:30:50;;;;;;;5.68;3.63;;;12.20;99.90;;;;;;5128590;27;20130;-51
2023/05/10 07:33:16;;;;;;;5.03;4.03;;;12.20;99.90;;;;;;5132443;27;20035;-48
2023/05/10 07:35:42;;;;;;;6.25;4.50;;;12.20;99.90;;;;;;5109326;27;20352;-53
2023/05/10 07:38:08;;;;;;;7.38;4.97;;;12.10;99.90;;;;;;5094980;27;20102;-48
2023/05/10 07:40:34;;;;;;;10.65;4.72;;;12.10;99.90;;;;;;5112055;27;20046;-47
2023/05/10 07:43:01;;;;;;;14.02;6.68;;;12.30;99.90;;;;;;5129569;27;20133;-49
2023/05/10 07:45:27;;;;;;;7.45;5.15;;;12.30;99.90;;;;;;5129580;27;20714;-48
2023/05/10 07:47:53;;;;;;;5.82;4.53;;;12.20;99.90;;;;;;5128639;27;20054;-49
2023/05/10 07:50:19;;;;;;;6.00;4.57;;;12.30;99.90;;;;;;5128228;27;20031;-46
2023/05/10 07:52:45;;;;;;;9.05;5.05;;;12.20;99.90;;;;;;5128463;27;20047;-47
2023/05/10 07:55:10;;;;;;;7.00;4.70;;;12.40;99.90;;;;;;5130855;27;20407;-48
2023/05/10 07:57:36;;;;;;;6.80;5.15;;;12.30;99.90;;;;;;5129753;27;20078;-46
2023/05/10 08:00:03;;;;;;;8.82;5.05;;;12.40;99.90;;;;;;5130282;27;20038;-49
2023/05/10 08:02:29;;;;;;;5.63;4.35;;;12.40;99.90;;;;;;5132319;27;20168;-47
2023/05/10 08:04:55;;;;;;;7.15;5.00;;;12.30;99.90;;;;;;5130249;27;20041;-48
2023/05/10 08:07:21;;;;;;;6.00;3.92;;;12.50;99.90;;;;;;5129861;27;20138;-47
2023/05/10 08:09:47;;;;;;;8.15;4.32;;;12.30;99.90;;;;;;5111022;27;20129;-48
2023/05/10 08:12:12;;;;;;;10.82;4.35;;;12.60;99.90;;;;;;5131718;27;20157;-50
2023/05/10 08:14:38;;;;;;;7.13;4.63;;;12.50;99.90;;;;;;5130031;27;20034;-48
2023/05/10 08:17:04;;;;;;;6.40;4.53;;;12.60;99.90;;;;;;5130018;27;20050;-47
2023/05/10 08:19:30;;;;;;;8.15;4.60;;;12.70;99.90;;;;;;5129464;27;20055;-50
2023/05/10 08:21:56;;;;;;;7.78;4.85;;;12.70;99.90;;;;;;5131404;27;20047;-47
2023/05/10 08:24:22;;;;;;;8.35;5.38;;;12.60;99.90;;;;;;5131142;27;20069;-47
2023/05/10 08:26:48;;;;;;;9.15;5.28;;;12.70;99.90;;;;;;5130754;27;20055;-48
2023/05/10 08:29:15;;;;;;;9.40;4.68;;;12.60;99.90;;;;;;5129733;27;20055;-47
2023/05/10 08:31:41;;;;;;;6.57;4.57;;;12.70;99.90;;;;;;5131872;27;20098;-48
2023/05/10 08:34:07;;;;;;;7.78;5.03;;;14.10;99.90;;;;;;5130439;27;20078;-48
2023/05/10 08:36:33;;;;;;;7.15;5.47;;;12.60;99.90;;;;;;5134376;27;20073;-49
2023/05/10 08:38:58;;;;;;;10.68;6.47;;;12.60;99.90;;;;;;5133246;27;20097;-49
2023/05/10 08:41:27;;;;;;;9.00;6.20;;;12.80;99.90;;;;;;5134869;27;20039;-52
2023/05/10 08:43:54;;;;;;;9.30;7.40;;;12.80;99.90;;;;;;5133765;27;20042;-48
2023/05/10 08:46:21;;;;;;;12.13;6.30;;;13.00;99.90;;;;;;5134524;27;20031;-48
2023/05/10 08:48:49;;;;;;;11.93;6.40;;;13.10;99.90;;;;;;5133505;27;20134;-47
2023/05/10 08:51:21;;;;;;;12.05;6.53;;;12.90;99.90;;;;;;5133458;27;20050;-47
2023/05/10 08:53:47;;;;;;;10.88;5.78;;;13.10;99.90;;;;;;5134077;27;20058;-47
2023/05/10 08:56:15;;;;;;;10.82;4.60;;;13.20;99.90;;;;;;5114580;27;20137;-48
2023/05/10 08:58:41;;;;;;;9.00;4.75;;;13.20;99.90;;;;;;5134446;27;20414;-50
2023/05/10 09:01:08;;;;;;;7.95;4.60;;;13.20;99.90;;;;;;5113139;27;20035;-51
2023/05/10 09:03:35;;;;;;;7.93;4.60;;;13.20;99.90;;;;;;5133125;27;20039;-49
2023/05/10 09:06:00;;;;;;;8.45;5.20;;;13.00;99.90;;;;;;5107408;27;20499;-49
2023/05/10 09:08:27;;;;;;;8.75;5.40;;;13.10;99.90;;;;;;5133202;27;20445;-50
2023/05/10 09:10:56;;;;;;;9.07;5.85;;;12.90;99.90;;;;;;5114903;27;20035;-51
2023/05/10 09:13:23;;;;;;;7.75;5.40;;;13.10;99.90;;;;;;5133840;27;20034;-50
2023/05/10 09:15:50;;;;;;;9.77;6.18;;;13.40;99.90;;;;;;5131636;27;20672;-49
2023/05/10 09:18:16;;;;;;;11.52;5.53;;;13.30;99.90;;;;;;5131781;27;21306;-49
2023/05/10 09:20:42;;;;;;;10.18;6.05;;;13.60;99.90;;;;;;5131271;27;20053;-49
2023/05/10 09:23:08;;;;;;;7.75;5.07;;;13.50;99.90;;;;;;5134529;27;20046;-47
2023/05/10 09:25:34;;;;;;;8.52;4.80;;;13.50;99.90;;;;;;5113553;27;20034;-49
2023/05/10 09:27:59;;;;;;;8.60;5.28;;;13.60;99.90;;;;;;5132817;27;20106;-51
2023/05/10 09:30:30;;;;;;;9.85;5.45;;;13.50;99.90;;;;;;5131702;27;20352;-50
2023/05/10 09:32:57;;;;;;;8.80;5.43;;;13.60;99.90;;;;;;5132804;27;20046;-47
2023/05/10 09:35:25;;;;;;;9.38;5.22;;;13.50;99.90;;;;;;5133103;27;20192;-48
2023/05/10 09:37:53;;;;;;;8.02;5.38;;;13.80;99.90;;;;;;5132959;27;20129;-50
2023/05/10 09:40:22;;;;;;;7.57;5.30;;;13.90;99.90;;;;;;5131937;27;20143;-48
2023/05/10 09:42:56;;;;;;;8.05;4.88;;;14.00;99.90;;;;;;5134449;27;20467;-47
2023/05/10 09:45:23;;;;;;;7.35;4.65;;;13.90;99.90;;;;;;5133478;27;20038;-49
2023/05/10 09:47:49;;;;;;;12.32;5.43;;;13.80;99.90;;;;;;5133027;27;20069;-48
2023/05/10 09:50:15;;;;;;;7.00;5.10;;;13.90;99.90;;;;;;5114835;27;20042;-48
2023/05/10 09:53:01;;;;;;;7.03;4.05;;;14.20;99.90;;;;;;5132579;27;20602;-48
2023/05/10 09:55:49;;;;;;;6.25;3.80;;;14.10;99.90;;;;;;5131462;27;20134;-50
2023/05/10 09:58:15;;;;;;;7.85;4.45;;;14.10;99.90;;;;;;5130298;27;20573;-51
2023/05/10 10:00:43;;;;;;;8.75;4.05;;;14.10;99.90;;;;;;5134211;27;20034;-49
2023/05/10 10:03:14;;;;;;;7.07;4.03;;;14.10;99.90;;;;;;5114712;27;20213;-47
2023/05/10 10:05:43;;;;;;;6.88;4.20;;;14.00;99.90;;;;;;5133749;27;20081;-51
2023/05/10 10:08:09;;;;;;;8.05;4.80;;;13.90;99.90;;;;;;5131762;27;20054;-51
2023/05/10 10:10:35;;;;;;;14.63;5.03;;;14.10;99.90;;;;;;5131336;27;20281;-48
2023/05/10 10:13:01;;;;;;;7.13;4.50;;;12.40;99.90;;;;;;5131655;27;20974;-50
2023/05/10 10:15:27;;;;;;;17.13;6.10;;;14.20;99.90;;;;;;5132978;27;20501;-52
2023/05/10 10:17:53;;;;;;;10.88;5.00;;;14.20;99.90;;;;;;5131219;27;20086;-46
2023/05/10 10:20:22;;;;;;;9.18;5.03;;;14.10;99.90;;;;;;5130458;27;20124;-47
2023/05/10 10:22:48;;;;;;;12.32;5.22;;;14.30;99.90;;;;;;5112577;27;20039;-49
2023/05/10 10:25:16;;;;;;;10.23;4.93;;;14.50;99.90;;;;;;5133290;27;20124;-51
2023/05/10 10:27:51;;;;;;;9.07;4.90;;;14.50;99.90;;;;;;5113230;27;20035;-49
2023/05/10 10:30:29;;;;;;;12.52;5.30;;;14.60;99.90;;;;;;5132453;27;20042;-49
2023/05/10 10:33:33;;;;;;;7.70;4.43;;;14.50;99.90;;;;;;5129942;27;20034;-46
2023/05/10 10:36:01;;;;;;;8.10;4.65;;;14.70;99.90;;;;;;5099982;27;20078;-50
2023/05/10 10:38:38;;;;;;;8.02;5.07;;;14.60;99.90;;;;;;5130447;27;20086;-50
2023/05/10 10:41:11;;;;;;;8.43;5.90;;;14.40;99.90;;;;;;5132078;27;20080;-50
2023/05/10 10:43:37;;;;;;;8.35;4.97;;;14.40;99.90;;;;;;5130334;27;20628;-51
2023/05/10 10:46:17;;;;;;;8.65;5.22;;;14.30;99.90;;;;;;5131992;27;20127;-46
2023/05/10 10:48:51;;;;;;;8.93;5.32;;;14.10;99.90;;;;;;5129237;27;20526;-47
2023/05/10 10:51:17;;;;;;;9.50;5.90;;;14.10;99.90;;;;;;5129523;27;20116;-48
2023/05/10 10:53:43;;;;;;;8.90;5.05;;;14.10;99.90;;;;;;5130738;27;20128;-46
2023/05/10 10:56:11;;;;;;;9.40;5.97;;;14.20;99.90;;;;;;5131026;27;20195;-46
2023/05/10 10:58:38;;;;;;;8.70;5.80;;;14.30;99.90;;;;;;5129811;27;20050;-50
2023/05/10 11:01:18;;;;;;;8.18;5.93;;;14.30;99.90;;;;;;5129340;27;20043;-50
2023/05/10 11:03:58;;;;;;;7.75;6.05;;;14.20;99.90;;;;;;5131425;27;20038;-47
2023/05/10 11:06:32;;;;;;;8.82;6.63;;;14.00;99.90;;;;;;5129606;27;20069;-46
2023/05/10 11:08:58;;;;;;;10.68;7.47;;;14.00;99.90;;;;;;5129908;27;20034;-49
2023/05/10 11:11:24;;;;;;;11.65;6.38;;;14.20;99.90;;;;;;5131299;27;21171;-51
2023/05/10 11:13:49;;;;;;;9.00;7.05;;;13.80;99.90;;;;;;5131681;27;20337;-47
2023/05/10 11:16:19;;;;;;;9.85;7.00;;;14.00;99.90;;;;;;5129569;27;20035;-51
2023/05/10 11:18:58;;;;;;;16.67;8.15;;;14.00;99.90;;;;;;5113371;27;20038;-48
2023/05/10 11:21:24;;;;;;;13.23;8.32;;;16.10;99.90;;;;;;5131236;27;20740;-46
2023/05/10 11:23:58;;;;;;;10.77;7.53;;;14.10;99.90;;;;;;5112030;27;20045;-50
2023/05/10 11:26:25;;;;;;;17.13;8.18;;;13.90;99.90;;;;;;5130515;27;20042;-50
2023/05/10 11:28:56;;;;;;;12.43;8.43;;;16.00;99.90;;;;;;5130102;27;20099;-50
2023/05/10 11:31:22;;;;;;;13.70;7.85;;;13.80;99.90;;;;;;5128550;27;20030;-46
2023/05/10 11:33:54;;;;;;;15.00;8.15;;;13.90;99.90;;;;;;5130079;27;20134;-49
2023/05/10 11:36:23;;;;;;;16.37;7.73;;;13.90;99.90;;;;;;5130505;27;20065;-49
2023/05/10 11:38:49;;;;;;;11.70;7.28;;;14.20;99.90;;;;;;5131369;27;20031;-48
2023/05/10 11:41:18;;;;;;;12.85;8.40;;;14.10;99.90;;;;;;5129650;27;20039;-49
2023/05/10 11:43:47;;;;;;;11.30;7.97;;;14.20;99.90;;;;;;5128504;27;20515;-50
2023/05/10 11:46:13;;;;;;;10.30;6.90;;;14.20;99.90;;;;;;5129651;27;20061;-46
2023/05/10 11:48:40;;;;;;;9.40;6.63;;;14.50;99.90;;;;;;5129568;27;21586;-46
2023/05/10 11:51:10;;;;;;;9.93;6.75;;;14.50;99.90;;;;;;5129473;27;20056;-47
2023/05/10 11:53:36;;;;;;;9.80;6.65;;;14.50;99.90;;;;;;5129444;27;20077;-46
2023/05/10 11:56:09;;;;;;;9.75;6.68;;;14.40;99.90;;;;;;5129643;27;20054;-48
2023/05/10 11:58:36;;;;;;;14.32;7.10;;;14.50;99.90;;;;;;5127881;27;20035;-47
2023/05/10 12:01:04;;;;;;;15.50;7.82;;;14.50;99.90;;;;;;5129488;27;20042;-46
2023/05/10 12:03:30;;;;;;;11.82;5.25;;;14.50;99.90;;;;;;5129305;27;20050;-48
2023/05/10 12:05:56;;;;;;;9.15;5.28;;;14.40;99.90;;;;;;5130340;27;20038;-47
2023/05/10 12:08:28;;;;;;;10.90;5.65;;;14.30;99.90;;;;;;5130928;27;20034;-50
2023/05/10 12:11:08;;;;;;;11.00;6.03;;;14.50;99.90;;;;;;5132954;27;20112;-47
2023/05/10 12:13:40;;;;;;;8.98;5.80;;;14.30;99.90;;;;;;5133214;27;20049;-47
2023/05/10 12:16:12;;;;;;;;;;;14.50;99.90;;;;;;5132164;27;20423;-50
2023/05/10 12:18:39;;;;;;;;;;;14.40;99.90;;;;;;5134213;27;19935;-45
2023/05/10 12:21:05;;;;;;;13.55;7.57;;;14.60;99.90;;;;;;5131203;27;19923;-48
2023/05/10 12:23:31;;;;;;;10.90;6.55;;;14.50;99.90;;;;;;5134850;27;20027;-47
2023/05/10 12:26:03;;;;;;;10.13;6.00;;;14.50;99.90;;;;;;5132901;27;20507;-47
2023/05/10 12:28:30;;;;;;;9.77;5.82;;;14.60;99.90;;;;;;5133136;27;20066;-47
2023/05/10 12:30:58;;;;;;;9.43;5.80;;;14.50;99.90;;;;;;5131773;27;20587;-45
2023/05/10 12:33:23;;;;;;;10.68;6.28;;;14.50;99.90;;;;;;5132954;27;20034;-47
2023/05/10 12:35:52;;;;;;;9.85;6.30;;;14.50;99.90;;;;;;5133081;27;20041;-46
2023/05/10 12:38:34;;;;;;;8.20;5.43;;;14.50;99.90;;;;;;5133190;27;20077;-48
2023/05/10 12:41:02;;;;;;;7.70;5.78;;;14.50;99.90;;;;;;5132350;27;20803;-50
2023/05/10 12:43:28;;;;;;;9.20;5.75;;;14.60;99.90;;;;;;5133438;27;20413;-51